Time;durP1;ratioP1;P1;durP2;ratioP2;P2;SDS_P1;SDS_P2;PMS_P1;PMS_P2;Temp;Humidity;BMP_temperature;BMP_pressure;BME280_temperature;BME280_humidity;BME280_pressure;Samples;Min_cycle;Max_cycle;Signal;HPM_P1;HPM_P2
2021/06/13 00:00:29;;;;;;;2.08;1.70;;;22.80;70.20;;;;;;5132634;27;20046;-53
2021/06/13 00:02:55;;;;;;;3.08;2.00;;;22.80;70.20;;;;;;5132665;27;20145;-54
2021/06/13 00:05:20;;;;;;;2.72;2.00;;;22.80;70.20;;;;;;5132752;27;20066;-54
2021/06/13 00:07:47;;;;;;;2.45;1.80;;;22.80;70.20;;;;;;5132783;27;20043;-55
2021/06/13 00:10:14;;;;;;;2.95;2.10;;;22.80;70.20;;;;;;5132185;27;20050;-55
2021/06/13 00:12:41;;;;;;;2.88;2.03;;;22.80;70.30;;;;;;5132853;27;20050;-51
2021/06/13 00:15:11;;;;;;;3.30;2.33;;;22.80;70.90;;;;;;5132800;27;20075;-53
2021/06/13 00:17:37;;;;;;;3.97;2.13;;;22.80;70.30;;;;;;5132938;28;20039;-53
2021/06/13 00:20:10;;;;;;;2.55;2.20;;;22.80;70.30;;;;;;5132239;28;20398;-54
2021/06/13 00:22:35;;;;;;;3.75;2.10;;;22.80;70.30;;;;;;5132619;28;20435;-55
2021/06/13 00:25:01;;;;;;;2.80;2.08;;;22.80;70.30;;;;;;5132594;28;20047;-54
2021/06/13 00:27:27;;;;;;;2.67;2.03;;;22.80;70.30;;;;;;5132836;28;20073;-53
2021/06/13 00:29:53;;;;;;;2.67;1.90;;;22.80;70.30;;;;;;5132316;28;20055;-54
2021/06/13 00:32:18;;;;;;;3.13;1.90;;;22.80;70.30;;;;;;5132919;28;20043;-54
2021/06/13 00:34:44;;;;;;;3.33;2.00;;;22.80;70.30;;;;;;5132610;27;20047;-54
2021/06/13 00:37:10;;;;;;;2.28;1.90;;;22.80;70.30;;;;;;5136847;27;20081;-54
2021/06/13 00:39:36;;;;;;;2.75;1.83;;;22.80;70.30;;;;;;5136512;27;20047;-55
2021/06/13 00:42:02;;;;;;;2.40;1.90;;;22.80;70.30;;;;;;5136381;27;20039;-54
2021/06/13 00:44:28;;;;;;;3.50;2.25;;;22.70;70.30;;;;;;5137005;27;20380;-54
2021/06/13 00:46:53;;;;;;;3.40;2.10;;;22.70;70.30;;;;;;5136679;27;20050;-54
2021/06/13 00:49:19;;;;;;;3.78;2.30;;;22.70;70.30;;;;;;5136376;27;20533;-54
2021/06/13 00:51:46;;;;;;;2.67;2.17;;;22.70;70.30;;;;;;5136126;27;20126;-54
2021/06/13 00:54:12;;;;;;;3.20;2.03;;;22.70;70.30;;;;;;5136638;27;20047;-54
2021/06/13 00:56:38;;;;;;;4.15;2.55;;;22.70;70.30;;;;;;5136137;27;20096;-54
2021/06/13 00:59:06;;;;;;;2.78;2.33;;;22.70;70.40;;;;;;5136585;27;20043;-53
2021/06/13 01:01:32;;;;;;;3.05;2.20;;;22.70;70.40;;;;;;5136030;27;20053;-52
2021/06/13 01:03:58;;;;;;;2.72;2.20;;;22.70;70.40;;;;;;5136048;27;20035;-54
2021/06/13 01:07:02;;;;;;;2.95;2.20;;;22.80;70.40;;;;;;5117532;27;20489;-54
2021/06/13 01:09:33;;;;;;;2.30;2.05;;;22.70;70.30;;;;;;5053011;28;20061;-53
2021/06/13 01:12:07;;;;;;;2.47;2.28;;;22.70;70.40;;;;;;5052544;28;20128;-48
2021/06/13 01:15:05;;;;;;;3.03;2.30;;;22.70;70.40;;;;;;5052751;28;20529;-54
2021/06/13 01:17:44;;;;;;;2.88;2.10;;;22.70;70.40;;;;;;4993807;28;20418;-53
2021/06/13 01:20:20;;;;;;;2.63;2.10;;;22.70;70.40;;;;;;4993437;28;20069;-54
2021/06/13 01:23:24;;;;;;;2.17;1.90;;;22.70;70.50;;;;;;4993362;28;20054;-51
2021/06/13 01:26:14;;;;;;;3.58;2.25;;;22.70;70.50;;;;;;4994045;28;20058;-55
2021/06/13 01:28:59;;;;;;;3.65;2.63;;;22.70;70.50;;;;;;4993120;28;20120;-55
2021/06/13 01:31:42;;;;;;;2.67;2.20;;;22.70;70.40;;;;;;4993300;28;20054;-53
2021/06/13 01:34:12;;;;;;;3.30;2.30;;;22.70;70.50;;;;;;4992915;28;20050;-54
2021/06/13 01:36:38;;;;;;;3.55;2.58;;;22.60;70.50;;;;;;4993202;28;20057;-54
2021/06/13 01:39:13;;;;;;;2.63;2.03;;;22.60;70.50;;;;;;4992942;28;20098;-54
2021/06/13 01:41:40;;;;;;;;;;;22.60;70.50;;;;;;4993410;28;20074;-54
2021/06/13 01:44:07;;;;;;;3.47;2.33;;;22.60;70.40;;;;;;4992365;28;19968;-54
2021/06/13 01:46:37;;;;;;;2.58;2.22;;;22.60;70.60;;;;;;5042763;28;20212;-54
2021/06/13 01:49:04;;;;;;;3.13;2.40;;;22.60;70.60;;;;;;5051783;28;20111;-53
2021/06/13 01:51:31;;;;;;;4.80;2.88;;;22.60;70.60;;;;;;5052112;28;20044;-53
2021/06/13 01:53:59;;;;;;;4.78;2.60;;;22.60;70.60;;;;;;5072288;28;20077;-54
2021/06/13 01:56:26;;;;;;;2.45;2.20;;;22.50;70.60;;;;;;5129908;27;20444;-54
2021/06/13 01:58:56;;;;;;;3.08;2.20;;;22.60;70.60;;;;;;5135113;27;20046;-54
2021/06/13 02:01:25;;;;;;;3.13;2.20;;;22.60;70.60;;;;;;5135118;27;20053;-53
2021/06/13 02:03:54;;;;;;;2.70;2.20;;;22.60;70.70;;;;;;5135365;27;20039;-54
2021/06/13 02:06:25;;;;;;;3.00;2.45;;;22.50;70.60;;;;;;5134824;27;20047;-53
2021/06/13 02:08:53;;;;;;;4.22;2.50;;;22.60;70.70;;;;;;5134957;27;20145;-54
2021/06/13 02:11:20;;;;;;;3.30;2.28;;;22.60;70.70;;;;;;5134917;27;20047;-54
2021/06/13 02:13:47;;;;;;;3.75;2.10;;;22.50;70.60;;;;;;5134646;27;20039;-53
2021/06/13 02:16:15;;;;;;;2.97;2.17;;;22.50;70.60;;;;;;5134449;27;20069;-52
2021/06/13 02:18:43;;;;;;;3.47;2.40;;;22.50;70.70;;;;;;5134823;27;20122;-54
2021/06/13 02:21:10;;;;;;;2.70;2.30;;;22.50;70.60;;;;;;5135059;27;20039;-55
2021/06/13 02:23:39;;;;;;;3.63;2.38;;;22.50;70.60;;;;;;5135080;27;20047;-54
2021/06/13 02:26:05;;;;;;;3.15;2.08;;;22.50;70.70;;;;;;5134797;27;20050;-53
2021/06/13 02:28:39;;;;;;;2.78;2.35;;;22.50;70.60;;;;;;5134138;27;20116;-54
2021/06/13 02:31:07;;;;;;;2.38;2.13;;;22.50;70.60;;;;;;5134311;27;20444;-54
2021/06/13 02:33:37;;;;;;;2.88;2.30;;;22.50;70.70;;;;;;5134681;27;20453;-50
2021/06/13 02:36:03;;;;;;;2.42;2.13;;;22.50;70.70;;;;;;5134709;27;20420;-54
2021/06/13 02:38:29;;;;;;;2.92;2.53;;;22.50;70.70;;;;;;5134128;27;20047;-53
2021/06/13 02:40:55;;;;;;;3.25;2.33;;;22.50;70.70;;;;;;5134336;27;20054;-52
2021/06/13 02:43:21;;;;;;;2.83;2.20;;;22.50;70.70;;;;;;5134148;27;20518;-54
2021/06/13 02:45:48;;;;;;;3.33;2.63;;;22.50;70.70;;;;;;5133946;27;20103;-53
2021/06/13 02:48:15;;;;;;;4.50;2.38;;;22.50;70.70;;;;;;5133843;27;20423;-54
2021/06/13 02:50:42;;;;;;;2.75;2.22;;;22.50;70.70;;;;;;5133968;27;20091;-54
2021/06/13 02:53:45;;;;;;;3.88;2.78;;;22.50;70.70;;;;;;5133592;27;20495;-54
2021/06/13 02:56:32;;;;;;;3.63;2.53;;;22.50;70.70;;;;;;5133259;27;20518;-51
2021/06/13 02:59:23;;;;;;;3.83;3.05;;;22.50;70.70;;;;;;5132226;27;20063;-53
2021/06/13 03:01:52;;;;;;;3.28;2.30;;;22.50;70.70;;;;;;5132607;27;20042;-54
2021/06/13 03:04:21;;;;;;;3.08;2.70;;;22.40;70.70;;;;;;5133900;27;20039;-54
2021/06/13 03:06:51;;;;;;;3.00;2.47;;;22.40;70.70;;;;;;5134095;27;20141;-55
2021/06/13 03:09:17;;;;;;;5.05;2.55;;;22.40;70.70;;;;;;5133751;27;20105;-52
2021/06/13 03:11:44;;;;;;;3.05;2.20;;;22.40;70.70;;;;;;5119332;27;20046;-54
2021/06/13 03:14:11;;;;;;;3.38;2.40;;;22.40;70.80;;;;;;5133765;27;20082;-51
2021/06/13 03:16:38;;;;;;;3.35;2.30;;;22.40;70.80;;;;;;5133472;27;20624;-55
2021/06/13 03:19:04;;;;;;;2.97;2.22;;;22.40;70.80;;;;;;5133731;27;20048;-51
2021/06/13 03:21:30;;;;;;;2.92;2.38;;;22.50;70.80;;;;;;5133428;27;20058;-54
2021/06/13 03:23:56;;;;;;;3.30;2.45;;;22.40;70.80;;;;;;5133810;27;20047;-55
2021/06/13 03:26:23;;;;;;;3.78;2.83;;;22.40;70.80;;;;;;5115479;27;20042;-55
2021/06/13 03:28:54;;;;;;;3.60;2.78;;;22.40;70.80;;;;;;5133671;27;20055;-54
2021/06/13 03:31:21;;;;;;;3.25;2.10;;;22.40;70.90;;;;;;5133514;27;20395;-55
2021/06/13 03:33:48;;;;;;;2.60;2.25;;;22.40;70.80;;;;;;5133267;27;20039;-54
2021/06/13 03:36:16;;;;;;;3.70;2.30;;;22.40;70.90;;;;;;5133822;27;20479;-55
2021/06/13 03:38:43;;;;;;;3.08;2.17;;;22.40;70.90;;;;;;5133759;27;20043;-54
2021/06/13 03:41:10;;;;;;;3.30;2.38;;;22.40;70.90;;;;;;5133730;27;20100;-52
2021/06/13 03:43:36;;;;;;;3.33;2.15;;;22.40;70.90;;;;;;5113113;28;20092;-55
2021/06/13 03:46:02;;;;;;;2.58;2.28;;;22.40;70.90;;;;;;5112783;28;20119;-54
2021/06/13 03:48:30;;;;;;;2.92;2.17;;;22.40;70.90;;;;;;5112547;28;20047;-55
2021/06/13 03:50:56;;;;;;;3.10;2.38;;;22.40;70.90;;;;;;5112995;28;20122;-54
2021/06/13 03:53:22;;;;;;;3.25;2.30;;;22.40;70.90;;;;;;5127365;27;20128;-54
2021/06/13 03:55:49;;;;;;;4.18;2.67;;;22.30;70.90;;;;;;5133255;27;20492;-55
2021/06/13 03:58:16;;;;;;;4.82;2.60;;;22.30;70.90;;;;;;5133048;27;20427;-54
2021/06/13 04:00:44;;;;;;;3.08;2.60;;;22.40;70.90;;;;;;5133155;27;20384;-53
2021/06/13 04:03:10;;;;;;;2.97;2.53;;;22.30;70.90;;;;;;5132532;27;20201;-55
2021/06/13 04:05:39;;;;;;;3.20;2.60;;;22.30;70.90;;;;;;5133015;27;20102;-55
2021/06/13 04:08:08;;;;;;;2.95;2.50;;;22.30;70.90;;;;;;5132607;27;20111;-55
2021/06/13 04:10:34;;;;;;;3.65;2.15;;;22.30;70.90;;;;;;5133104;27;20174;-55
2021/06/13 04:13:01;;;;;;;2.80;2.40;;;22.30;70.90;;;;;;5132981;27;20405;-53
2021/06/13 04:15:27;;;;;;;3.40;2.60;;;22.30;70.90;;;;;;5132944;27;20456;-54
2021/06/13 04:17:53;;;;;;;3.45;2.13;;;22.30;70.90;;;;;;5132638;28;20043;-54
2021/06/13 04:20:20;;;;;;;3.38;2.50;;;22.30;70.90;;;;;;5131993;28;20074;-49
2021/06/13 04:22:46;;;;;;;3.72;2.58;;;22.30;70.90;;;;;;5132870;28;20103;-55
2021/06/13 04:25:14;;;;;;;3.83;2.75;;;22.30;70.90;;;;;;5132858;28;20043;-53
2021/06/13 04:27:42;;;;;;;2.78;2.30;;;22.30;70.90;;;;;;5132755;28;20195;-51
2021/06/13 04:30:09;;;;;;;2.95;2.55;;;22.30;71.00;;;;;;5132229;28;20076;-53
2021/06/13 04:32:35;;;;;;;3.40;2.10;;;22.30;70.90;;;;;;5132805;28;20047;-52
2021/06/13 04:35:02;;;;;;;3.40;2.45;;;22.30;70.90;;;;;;5132428;28;20403;-54
2021/06/13 04:37:28;;;;;;;2.70;2.10;;;22.30;71.00;;;;;;5132658;28;20050;-53
2021/06/13 04:39:54;;;;;;;3.20;2.03;;;22.30;71.00;;;;;;5132350;28;20043;-51
2021/06/13 04:42:20;;;;;;;3.05;2.50;;;22.30;71.00;;;;;;5132758;28;20081;-54
2021/06/13 04:44:46;;;;;;;3.45;2.70;;;22.30;71.00;;;;;;5132530;28;20162;-53
2021/06/13 04:47:12;;;;;;;3.58;2.63;;;22.30;71.00;;;;;;5133040;28;20070;-54
2021/06/13 04:49:38;;;;;;;3.90;3.00;;;22.30;71.00;;;;;;5132061;28;20035;-54
2021/06/13 04:52:06;;;;;;;2.70;2.40;;;22.30;71.00;;;;;;5132361;28;20118;-53
2021/06/13 04:54:32;;;;;;;3.47;2.67;;;22.30;71.00;;;;;;5132881;28;20047;-54
2021/06/13 04:57:23;;;;;;;3.80;2.55;;;22.20;71.00;;;;;;5132591;28;20446;-53
2021/06/13 04:59:49;;;;;;;3.13;2.40;;;22.30;71.20;;;;;;5114046;28;20051;-54
2021/06/13 05:02:15;;;;;;;2.97;2.28;;;22.30;71.10;;;;;;5132659;28;20047;-55
2021/06/13 05:04:41;;;;;;;2.47;2.10;;;22.20;71.00;;;;;;5132471;28;20039;-54
2021/06/13 05:07:07;;;;;;;3.75;2.70;;;22.30;71.10;;;;;;5132210;28;20479;-53
2021/06/13 05:09:33;;;;;;;2.92;2.58;;;22.30;71.10;;;;;;5132623;28;20047;-53
2021/06/13 05:11:59;;;;;;;3.42;2.70;;;22.20;71.00;;;;;;5132000;28;20047;-55
2021/06/13 05:14:25;;;;;;;2.95;2.08;;;22.20;71.00;;;;;;5132578;28;20043;-54
2021/06/13 05:16:51;;;;;;;3.63;2.67;;;22.20;71.10;;;;;;5132518;28;20054;-53
2021/06/13 05:19:17;;;;;;;2.30;1.90;;;22.20;71.10;;;;;;5132264;28;20043;-54
2021/06/13 05:21:43;;;;;;;3.65;2.17;;;22.20;71.00;;;;;;5110809;28;20043;-55
2021/06/13 05:24:08;;;;;;;2.85;2.35;;;22.20;71.00;;;;;;5126718;27;20057;-55
2021/06/13 05:26:34;;;;;;;3.13;2.30;;;22.20;71.00;;;;;;5136119;27;20123;-54
2021/06/13 05:29:00;;;;;;;3.35;2.72;;;22.20;71.00;;;;;;5136239;27;20476;-52
2021/06/13 05:31:26;;;;;;;3.38;2.50;;;22.20;71.00;;;;;;5136164;27;20487;-54
2021/06/13 05:33:52;;;;;;;3.25;2.42;;;22.20;71.10;;;;;;5135776;27;20058;-54
2021/06/13 05:36:18;;;;;;;3.47;2.47;;;22.20;71.00;;;;;;5136228;27;20047;-54
2021/06/13 05:38:44;;;;;;;3.75;2.40;;;22.20;71.00;;;;;;5135757;27;20459;-52
2021/06/13 05:41:14;;;;;;;2.60;2.38;;;22.20;71.00;;;;;;5136030;27;20090;-54
2021/06/13 05:43:41;;;;;;;3.20;2.70;;;22.20;71.10;;;;;;5135430;27;20147;-52
2021/06/13 05:46:07;;;;;;;2.63;2.30;;;22.20;71.00;;;;;;5135673;27;20043;-53
2021/06/13 05:48:33;;;;;;;2.58;2.35;;;22.20;71.10;;;;;;5117449;27;20480;-52
2021/06/13 05:51:00;;;;;;;4.82;2.47;;;22.20;71.00;;;;;;5135733;27;20110;-53
2021/06/13 05:53:26;;;;;;;3.47;2.90;;;22.20;71.00;;;;;;5135315;27;20068;-55
2021/06/13 05:55:52;;;;;;;4.00;2.78;;;22.20;71.00;;;;;;5135928;27;20138;-54
2021/06/13 05:58:18;;;;;;;4.95;2.65;;;22.20;71.10;;;;;;5135628;27;20499;-55
2021/06/13 06:00:44;;;;;;;2.85;2.50;;;22.20;71.00;;;;;;5135499;27;20126;-54
2021/06/13 06:03:10;;;;;;;3.10;2.53;;;22.20;71.00;;;;;;5135780;27;20082;-54
2021/06/13 06:05:36;;;;;;;2.95;2.47;;;22.20;71.10;;;;;;5135146;27;20075;-55
2021/06/13 06:08:03;;;;;;;3.90;2.40;;;22.10;71.00;;;;;;5135463;27;20050;-54
2021/06/13 06:10:30;;;;;;;2.60;2.30;;;22.20;71.00;;;;;;5135122;27;20114;-56
2021/06/13 06:13:00;;;;;;;2.60;1.98;;;22.20;71.00;;;;;;5135287;27;20047;-53
2021/06/13 06:15:28;;;;;;;3.03;2.47;;;22.20;71.00;;;;;;5134822;27;20050;-54
2021/06/13 06:17:54;;;;;;;3.42;2.38;;;22.20;71.00;;;;;;5135184;27;20047;-53
2021/06/13 06:20:23;;;;;;;3.28;2.28;;;22.20;71.00;;;;;;5135250;27;20051;-52
2021/06/13 06:22:50;;;;;;;2.55;2.33;;;22.20;71.00;;;;;;5135186;27;20395;-54
2021/06/13 06:25:17;;;;;;;3.45;2.53;;;22.20;71.00;;;;;;5134209;27;20078;-54
2021/06/13 06:27:43;;;;;;;2.70;2.20;;;22.20;71.00;;;;;;5134475;27;20039;-54
2021/06/13 06:30:12;;;;;;;2.85;2.55;;;22.20;71.00;;;;;;5134887;27;20138;-54
2021/06/13 06:32:38;;;;;;;2.47;2.10;;;22.20;71.00;;;;;;5134013;27;20062;-52
2021/06/13 06:35:07;;;;;;;3.10;2.53;;;22.20;71.00;;;;;;5134879;27;20602;-54
2021/06/13 06:37:33;;;;;;;3.38;2.40;;;22.20;71.70;;;;;;5134438;27;20046;-52
2021/06/13 06:39:58;;;;;;;2.97;2.38;;;22.20;71.00;;;;;;5133920;27;20123;-55
2021/06/13 06:42:27;;;;;;;2.72;2.03;;;22.20;71.00;;;;;;5134455;27;20535;-56
2021/06/13 06:44:53;;;;;;;2.80;2.30;;;22.20;71.00;;;;;;5112803;28;20036;-53
2021/06/13 06:47:19;;;;;;;3.55;2.72;;;22.20;71.00;;;;;;5114031;28;20142;-54
2021/06/13 06:49:44;;;;;;;3.22;2.55;;;22.20;71.00;;;;;;5113938;28;20068;-53
2021/06/13 06:52:11;;;;;;;3.45;2.30;;;22.20;71.00;;;;;;5133201;27;20043;-54
2021/06/13 06:54:37;;;;;;;2.83;2.35;;;22.20;70.90;;;;;;5134155;27;20515;-54
2021/06/13 06:57:03;;;;;;;2.97;2.20;;;22.30;71.00;;;;;;5133640;27;20060;-54
2021/06/13 06:59:29;;;;;;;2.65;2.22;;;22.20;70.90;;;;;;5134484;27;20047;-54
2021/06/13 07:01:54;;;;;;;3.80;2.47;;;22.20;70.90;;;;;;5111716;28;20061;-54
2021/06/13 07:04:22;;;;;;;3.00;2.33;;;22.30;71.00;;;;;;5113865;28;20554;-52
2021/06/13 07:06:48;;;;;;;3.40;2.40;;;22.30;71.00;;;;;;5114068;28;20114;-48
2021/06/13 07:09:13;;;;;;;2.63;2.30;;;22.30;70.90;;;;;;5113553;28;20044;-54
2021/06/13 07:11:39;;;;;;;3.60;2.70;;;22.30;70.90;;;;;;5116250;27;20070;-54
2021/06/13 07:14:05;;;;;;;2.92;2.03;;;22.20;70.80;;;;;;5134136;27;20443;-54
2021/06/13 07:16:33;;;;;;;2.90;2.20;;;22.30;70.90;;;;;;5134130;27;20074;-54
2021/06/13 07:18:59;;;;;;;2.58;2.38;;;22.30;70.90;;;;;;5115545;27;20047;-53
2021/06/13 07:21:25;;;;;;;2.63;2.22;;;22.30;70.80;;;;;;5133879;27;20043;-54
2021/06/13 07:23:51;;;;;;;2.65;2.20;;;22.30;70.80;;;;;;5133344;27;20047;-51
2021/06/13 07:26:17;;;;;;;3.17;1.95;;;22.30;70.80;;;;;;5133486;27;20092;-54
2021/06/13 07:28:42;;;;;;;2.55;2.28;;;22.30;70.80;;;;;;5133034;27;20388;-51
2021/06/13 07:31:08;;;;;;;2.75;2.10;;;22.30;70.80;;;;;;5133974;27;20411;-54
2021/06/13 07:33:34;;;;;;;2.83;2.30;;;22.30;70.70;;;;;;5133196;27;20050;-49
2021/06/13 07:36:00;;;;;;;3.38;2.28;;;22.30;70.70;;;;;;5133030;27;20437;-55
2021/06/13 07:38:27;;;;;;;2.38;2.10;;;22.30;70.70;;;;;;5133210;27;20074;-55
2021/06/13 07:40:53;;;;;;;3.10;2.22;;;22.30;70.70;;;;;;5133453;27;20154;-53
2021/06/13 07:43:22;;;;;;;2.45;1.60;;;22.30;70.60;;;;;;5132794;27;20957;-47
2021/06/13 07:45:48;;;;;;;2.70;2.05;;;22.40;70.70;;;;;;5112456;28;20039;-54
2021/06/13 07:48:15;;;;;;;2.63;1.83;;;22.40;70.60;;;;;;5112863;28;20043;-54
2021/06/13 07:50:42;;;;;;;3.67;2.50;;;22.40;70.60;;;;;;5112929;28;20047;-54
2021/06/13 07:53:10;;;;;;;3.08;2.30;;;22.40;70.60;;;;;;5112838;28;20369;-53
2021/06/13 07:55:36;;;;;;;3.13;2.00;;;22.40;70.50;;;;;;5127771;27;20047;-55
2021/06/13 07:58:02;;;;;;;2.38;1.88;;;22.40;70.50;;;;;;5133125;27;20047;-54
2021/06/13 08:00:28;;;;;;;2.70;2.13;;;22.40;70.40;;;;;;5133346;27;20043;-54
2021/06/13 08:02:54;;;;;;;2.50;1.73;;;22.40;70.30;;;;;;5133478;27;20054;-55
2021/06/13 08:05:27;;;;;;;2.58;2.00;;;22.50;70.30;;;;;;5133270;27;20047;-54
2021/06/13 08:07:58;;;;;;;2.95;1.98;;;22.50;70.20;;;;;;5133576;27;20045;-54
2021/06/13 08:10:25;;;;;;;2.28;1.98;;;22.40;70.10;;;;;;5133737;27;20064;-53
2021/06/13 08:12:51;;;;;;;2.70;2.40;;;22.50;70.10;;;;;;5133440;27;20051;-53
2021/06/13 08:15:17;;;;;;;2.35;1.90;;;22.50;70.00;;;;;;5132785;27;20051;-53
2021/06/13 08:17:44;;;;;;;2.88;2.05;;;22.50;70.00;;;;;;5132873;27;20043;-54
2021/06/13 08:20:10;;;;;;;2.88;2.05;;;22.50;69.90;;;;;;5132936;28;20055;-53
2021/06/13 08:22:36;;;;;;;2.85;2.15;;;22.50;69.90;;;;;;5133279;28;20047;-55
2021/06/13 08:25:03;;;;;;;2.65;2.00;;;22.50;69.90;;;;;;5133108;28;20054;-50
2021/06/13 08:27:29;;;;;;;3.42;1.90;;;22.60;69.90;;;;;;5132681;28;20139;-46
2021/06/13 08:29:57;;;;;;;2.65;1.90;;;22.50;69.80;;;;;;5132295;28;20055;-53
2021/06/13 08:32:23;;;;;;;3.03;2.15;;;22.60;69.90;;;;;;5132959;28;20115;-53
2021/06/13 08:34:49;;;;;;;2.28;1.75;;;22.60;69.90;;;;;;5132886;28;20054;-50
2021/06/13 08:37:14;;;;;;;2.70;1.92;;;22.60;69.90;;;;;;5132913;28;20039;-54
2021/06/13 08:39:40;;;;;;;2.53;1.92;;;22.60;69.90;;;;;;5132338;28;20138;-54
2021/06/13 08:42:06;;;;;;;2.67;1.83;;;22.70;70.60;;;;;;5132296;28;20079;-54
2021/06/13 08:44:32;;;;;;;2.33;1.75;;;22.70;70.00;;;;;;5133038;28;20054;-53
2021/06/13 08:47:00;;;;;;;2.13;1.45;;;22.70;70.00;;;;;;5132560;28;20043;-55
2021/06/13 08:49:27;;;;;;;1.98;1.70;;;22.70;69.90;;;;;;5132973;28;20039;-54
2021/06/13 08:51:53;;;;;;;2.63;1.77;;;22.80;70.00;;;;;;5132467;28;20106;-54
2021/06/13 08:54:20;;;;;;;2.75;1.73;;;22.80;70.00;;;;;;5132823;28;20483;-54
2021/06/13 08:56:46;;;;;;;2.65;2.00;;;22.80;70.30;;;;;;5134304;27;20053;-54
2021/06/13 08:59:13;;;;;;;3.38;2.20;;;22.80;70.00;;;;;;5136786;27;20035;-53
2021/06/13 09:01:39;;;;;;;2.10;1.60;;;22.80;70.00;;;;;;5136194;27;20051;-54
2021/06/13 09:04:06;;;;;;;2.50;1.90;;;22.80;70.00;;;;;;5136534;27;20197;-55
2021/06/13 09:06:32;;;;;;;3.65;2.10;;;22.80;69.90;;;;;;5136736;27;20117;-55
2021/06/13 09:08:59;;;;;;;2.78;1.80;;;22.90;70.00;;;;;;5136709;27;20455;-55
2021/06/13 09:11:32;;;;;;;2.25;1.98;;;22.90;70.00;;;;;;5136397;27;20046;-54
2021/06/13 09:14:15;;;;;;;3.22;2.00;;;22.90;69.90;;;;;;5136394;27;20055;-55
2021/06/13 09:16:43;;;;;;;2.10;1.63;;;22.90;69.80;;;;;;5136009;27;20114;-53
2021/06/13 09:19:10;;;;;;;2.22;1.92;;;22.90;69.80;;;;;;5136325;27;20039;-55
2021/06/13 09:21:39;;;;;;;3.22;1.98;;;22.90;69.80;;;;;;5136365;27;20047;-53
2021/06/13 09:24:26;;;;;;;3.05;1.98;;;22.90;69.80;;;;;;5135855;27;20162;-55
2021/06/13 09:26:53;;;;;;;1.92;1.67;;;23.00;69.70;;;;;;5136378;27;20047;-54
2021/06/13 09:29:19;;;;;;;3.25;1.92;;;23.00;69.70;;;;;;5136116;27;20495;-54
2021/06/13 09:31:45;;;;;;;2.42;1.70;;;23.00;69.70;;;;;;5135942;27;20078;-52
2021/06/13 09:34:17;;;;;;;2.00;1.67;;;23.10;69.70;;;;;;5135449;27;20043;-53
2021/06/13 09:36:43;;;;;;;2.17;1.55;;;23.10;69.70;;;;;;5135944;27;20193;-54
2021/06/13 09:39:11;;;;;;;2.30;1.75;;;23.10;69.70;;;;;;5135864;27;20043;-55
2021/06/13 09:41:43;;;;;;;1.88;1.67;;;23.10;69.60;;;;;;5136040;27;20054;-54
2021/06/13 09:44:17;;;;;;;1.70;1.30;;;23.10;69.60;;;;;;5117093;27;20121;-52
2021/06/13 09:46:45;;;;;;;2.50;1.87;;;23.10;69.50;;;;;;5133690;27;20042;-55
2021/06/13 09:49:16;;;;;;;2.50;1.83;;;23.10;69.50;;;;;;5135111;27;20548;-55
2021/06/13 09:51:47;;;;;;;2.25;1.73;;;23.20;69.50;;;;;;5135755;27;20039;-54
2021/06/13 09:54:22;;;;;;;2.33;1.88;;;23.20;69.50;;;;;;5135783;27;20043;-54
2021/06/13 09:56:48;;;;;;;2.33;1.73;;;23.30;69.40;;;;;;5134907;27;20096;-55
2021/06/13 09:59:16;;;;;;;2.50;1.75;;;23.20;69.30;;;;;;5134937;27;20087;-52
2021/06/13 10:01:44;;;;;;;2.85;1.90;;;23.20;70.00;;;;;;5135281;27;20066;-55
2021/06/13 10:04:19;;;;;;;2.75;1.52;;;23.30;69.30;;;;;;5135226;27;20060;-55
2021/06/13 10:07:20;;;;;;;1.92;1.30;;;23.30;69.30;;;;;;5135139;27;20134;-54
2021/06/13 10:09:52;;;;;;;2.72;2.03;;;23.30;69.20;;;;;;5135287;27;20479;-53
2021/06/13 10:12:19;;;;;;;1.98;1.38;;;23.30;69.20;;;;;;5135281;27;20035;-53
2021/06/13 10:14:48;;;;;;;2.85;1.70;;;23.40;69.20;;;;;;5135433;27;20050;-55
2021/06/13 10:17:14;;;;;;;2.58;1.73;;;23.40;69.10;;;;;;5135076;27;20051;-55
2021/06/13 10:19:48;;;;;;;2.30;1.70;;;23.40;69.10;;;;;;5134906;27;20522;-55
2021/06/13 10:22:16;;;;;;;3.47;1.77;;;23.40;69.10;;;;;;5135327;27;20051;-55
2021/06/13 10:24:43;;;;;;;2.03;1.80;;;23.40;69.00;;;;;;5135310;27;20047;-55
2021/06/13 10:27:16;;;;;;;2.05;1.60;;;23.40;69.00;;;;;;5134773;27;20498;-54
2021/06/13 10:29:44;;;;;;;1.95;1.48;;;23.50;69.00;;;;;;5116739;27;20051;-54
2021/06/13 10:32:11;;;;;;;2.15;1.58;;;23.50;68.90;;;;;;5135648;27;20047;-54
2021/06/13 10:34:37;;;;;;;2.50;1.88;;;23.50;68.90;;;;;;5135359;27;20050;-54
2021/06/13 10:37:09;;;;;;;2.75;1.60;;;23.50;68.80;;;;;;5134985;27;20114;-54
2021/06/13 10:39:37;;;;;;;2.63;1.83;;;23.50;68.80;;;;;;5134412;27;20051;-54
2021/06/13 10:42:08;;;;;;;1.45;1.35;;;23.60;68.80;;;;;;5134908;27;20134;-50
2021/06/13 10:44:44;;;;;;;2.33;1.52;;;23.60;68.80;;;;;;5134971;27;20667;-54
2021/06/13 10:47:12;;;;;;;2.30;1.70;;;23.60;68.70;;;;;;5134908;27;20501;-54
2021/06/13 10:49:43;;;;;;;2.10;1.48;;;23.60;68.60;;;;;;5134467;27;20372;-55
2021/06/13 10:52:23;;;;;;;3.00;1.80;;;23.60;68.60;;;;;;5133884;27;20046;-54
2021/06/13 10:54:52;;;;;;;2.08;1.75;;;23.60;68.50;;;;;;5134772;27;20380;-55
2021/06/13 10:57:18;;;;;;;1.98;1.40;;;23.60;68.50;;;;;;5134727;27;20445;-55
2021/06/13 11:00:01;;;;;;;2.00;1.50;;;23.70;68.50;;;;;;5134455;27;20047;-55
2021/06/13 11:02:34;;;;;;;2.80;1.73;;;23.70;68.40;;;;;;5134014;27;20052;-54
2021/06/13 11:05:02;;;;;;;2.13;1.60;;;23.70;68.40;;;;;;5134411;27;20708;-54
2021/06/13 11:07:28;;;;;;;2.13;1.70;;;23.70;68.30;;;;;;5134204;27;20050;-54
2021/06/13 11:10:10;;;;;;;1.90;1.70;;;23.70;68.30;;;;;;5134370;27;20051;-54
2021/06/13 11:12:47;;;;;;;1.63;1.48;;;23.70;68.20;;;;;;5134054;27;20043;-55
2021/06/13 11:15:40;;;;;;;1.83;1.48;;;23.70;68.20;;;;;;5134142;27;20546;-55
2021/06/13 11:18:14;;;;;;;2.53;1.48;;;23.80;68.10;;;;;;5126264;27;20222;-54
2021/06/13 11:23:23;;;;;;;2.08;1.63;;;23.80;68.10;;;;;;5133157;27;20379;-53
2021/06/13 11:25:51;;;;;;;2.00;1.50;;;23.80;68.10;;;;;;5133698;27;20348;-54
2021/06/13 11:28:23;;;;;;;2.95;1.73;;;23.80;68.10;;;;;;5133556;27;20065;-54
2021/06/13 11:30:53;;;;;;;2.05;1.45;;;23.80;68.00;;;;;;5133500;27;20039;-53
2021/06/13 11:33:37;;;;;;;1.50;1.33;;;23.80;67.90;;;;;;5133597;27;20113;-54
2021/06/13 11:36:04;;;;;;;2.40;1.90;;;23.90;67.90;;;;;;5133293;27;20070;-54
2021/06/13 11:38:32;;;;;;;1.70;1.50;;;23.90;67.90;;;;;;5132715;27;20053;-53
2021/06/13 11:41:03;;;;;;;1.65;1.27;;;23.90;67.80;;;;;;5133642;27;20096;-54
2021/06/13 11:43:41;;;;;;;3.05;1.40;;;23.90;67.80;;;;;;5133573;27;20080;-54
2021/06/13 11:46:07;;;;;;;2.25;1.55;;;23.90;67.80;;;;;;5133558;27;20070;-54
2021/06/13 11:48:35;;;;;;;2.03;1.50;;;23.90;67.70;;;;;;5132966;27;20131;-53
2021/06/13 11:51:06;;;;;;;2.05;1.50;;;23.90;67.70;;;;;;5132695;27;20061;-54
2021/06/13 11:53:58;;;;;;;1.90;1.60;;;23.90;67.70;;;;;;5132791;27;20135;-53
2021/06/13 11:59:06;;;;;;;2.63;1.98;;;23.90;67.50;;;;;;5132963;27;20520;-53
2021/06/13 12:01:34;;;;;;;1.90;1.38;;;24.00;67.50;;;;;;5133113;27;20127;-53
2021/06/13 12:04:00;;;;;;;2.17;1.48;;;24.00;67.50;;;;;;5133326;27;20063;-51
2021/06/13 12:06:26;;;;;;;2.53;1.48;;;24.00;67.50;;;;;;5133126;27;20929;-54
2021/06/13 12:08:53;;;;;;;1.45;1.20;;;24.00;67.50;;;;;;5132687;27;20073;-54
2021/06/13 12:11:27;;;;;;;3.42;1.90;;;24.00;67.50;;;;;;5133159;27;20073;-54
2021/06/13 12:13:53;;;;;;;2.97;1.60;;;24.00;67.50;;;;;;5133254;27;20043;-54
2021/06/13 12:16:19;;;;;;;2.40;1.58;;;24.00;67.50;;;;;;5114645;27;20039;-54
2021/06/13 12:18:59;;;;;;;1.67;1.30;;;24.10;67.50;;;;;;5132925;27;20047;-54
2021/06/13 12:21:28;;;;;;;1.92;1.50;;;24.10;67.40;;;;;;5132354;28;20059;-53
2021/06/13 12:24:00;;;;;;;3.45;1.70;;;24.10;67.40;;;;;;5133002;28;20043;-54
2021/06/13 12:29:26;;;;;;;2.55;1.67;;;24.10;67.30;;;;;;5133117;28;20098;-54
2021/06/13 12:31:52;;;;;;;1.50;1.20;;;24.10;67.30;;;;;;5134722;27;20043;-54
2021/06/13 12:34:20;;;;;;;2.20;1.45;;;24.10;67.30;;;;;;5137297;27;20050;-54
2021/06/13 12:36:53;;;;;;;2.15;1.40;;;24.10;67.20;;;;;;5137292;27;20043;-53
2021/06/13 12:39:25;;;;;;;1.65;1.50;;;24.10;67.20;;;;;;5137077;27;20096;-53
2021/06/13 12:41:51;;;;;;;1.60;1.50;;;24.10;67.20;;;;;;5136477;27;20047;-53
2021/06/13 12:44:17;;;;;;;1.98;1.50;;;24.10;67.10;;;;;;5137207;27;20426;-53
2021/06/13 12:46:43;;;;;;;2.03;1.60;;;24.10;67.40;;;;;;5137444;27;20046;-54
2021/06/13 12:49:08;;;;;;;1.55;1.45;;;24.10;67.10;;;;;;5137369;27;20055;-54
2021/06/13 12:51:35;;;;;;;2.95;1.75;;;24.10;67.00;;;;;;5136507;27;20039;-53
2021/06/13 12:54:14;;;;;;;2.00;1.63;;;24.20;67.00;;;;;;5136636;27;20577;-54
2021/06/13 12:56:44;;;;;;;1.52;1.40;;;24.20;67.40;;;;;;5136616;27;20039;-52
2021/06/13 12:59:10;;;;;;;2.30;1.70;;;24.20;67.00;;;;;;5136842;27;20418;-53
2021/06/13 13:01:43;;;;;;;2.60;1.80;;;24.20;67.00;;;;;;5136486;27;20145;-52
2021/06/13 13:04:09;;;;;;;2.00;1.55;;;24.20;67.00;;;;;;5115817;28;20062;-53